sensor_id;sensor_type;location;lat;lon;timestamp;temperature;humidity
29453;DHT22;16424;50.956;5.320;2022-09-13T00:00:29;18.70;99.90
29453;DHT22;16424;50.956;5.320;2022-09-13T00:02:55;18.70;99.90
29453;DHT22;16424;50.956;5.320;2022-09-13T00:05:21;18.70;99.90
29453;DHT22;16424;50.956;5.320;2022-09-13T00:07:47;18.80;99.90
29453;DHT22;16424;50.956;5.320;2022-09-13T00:10:13;18.90;99.90
29453;DHT22;16424;50.956;5.320;2022-09-13T00:12:38;19.00;99.90
29453;DHT22;16424;50.956;5.320;2022-09-13T00:15:05;19.00;99.90
29453;DHT22;16424;50.956;5.320;2022-09-13T00:17:31;19.00;99.90
29453;DHT22;16424;50.956;5.320;2022-09-13T00:19:56;19.10;99.90
29453;DHT22;16424;50.956;5.320;2022-09-13T00:22:22;19.00;99.90
29453;DHT22;16424;50.956;5.320;2022-09-13T00:24:48;19.00;99.90
29453;DHT22;16424;50.956;5.320;2022-09-13T00:27:13;18.90;99.90
29453;DHT22;16424;50.956;5.320;2022-09-13T00:29:39;18.90;99.90
29453;DHT22;16424;50.956;5.320;2022-09-13T00:32:05;18.90;99.90
29453;DHT22;16424;50.956;5.320;2022-09-13T00:34:30;18.90;99.90
29453;DHT22;16424;50.956;5.320;2022-09-13T00:36:56;18.90;99.90
29453;DHT22;16424;50.956;5.320;2022-09-13T00:39:22;18.90;99.90
29453;DHT22;16424;50.956;5.320;2022-09-13T00:41:48;18.90;99.90
29453;DHT22;16424;50.956;5.320;2022-09-13T00:52:50;18.50;99.90
29453;DHT22;16424;50.956;5.320;2022-09-13T00:55:31;18.40;99.90
29453;DHT22;16424;50.956;5.320;2022-09-13T00:58:05;18.30;99.90
29453;DHT22;16424;50.956;5.320;2022-09-13T01:00:32;18.30;99.90
29453;DHT22;16424;50.956;5.320;2022-09-13T01:03:02;18.20;99.90
29453;DHT22;16424;50.956;5.320;2022-09-13T01:05:34;18.20;99.90
29453;DHT22;16424;50.956;5.320;2022-09-13T01:08:01;18.20;99.90
29453;DHT22;16424;50.956;5.320;2022-09-13T01:10:28;18.30;99.90
29453;DHT22;16424;50.956;5.320;2022-09-13T01:13:05;18.40;99.90
29453;DHT22;16424;50.956;5.320;2022-09-13T01:15:42;18.40;99.90
29453;DHT22;16424;50.956;5.320;2022-09-13T01:18:09;18.50;99.90
29453;DHT22;16424;50.956;5.320;2022-09-13T01:26:45;18.80;99.90
29453;DHT22;16424;50.956;5.320;2022-09-13T01:37:53;19.00;99.90
29453;DHT22;16424;50.956;5.320;2022-09-13T01:44:30;19.10;99.90
29453;DHT22;16424;50.956;5.320;2022-09-13T01:46:45;19.10;99.90
29453;DHT22;16424;50.956;5.320;2022-09-13T01:57:38;19.00;99.90
29453;DHT22;16424;50.956;5.320;2022-09-13T02:00:08;19.00;99.90
29453;DHT22;16424;50.956;5.320;2022-09-13T02:02:46;18.90;99.90
29453;DHT22;16424;50.956;5.320;2022-09-13T02:05:36;18.90;99.90
29453;DHT22;16424;50.956;5.320;2022-09-13T02:11:03;18.90;99.90
29453;DHT22;16424;50.956;5.320;2022-09-13T02:13:35;18.80;99.90
29453;DHT22;16424;50.956;5.320;2022-09-13T02:16:09;18.70;99.90
29453;DHT22;16424;50.956;5.320;2022-09-13T02:18:40;18.70;99.90
29453;DHT22;16424;50.956;5.320;2022-09-13T02:21:23;18.70;99.90
29453;DHT22;16424;50.956;5.320;2022-09-13T02:23:54;18.70;99.90
29453;DHT22;16424;50.956;5.320;2022-09-13T02:26:21;18.60;99.90
29453;DHT22;16424;50.956;5.320;2022-09-13T02:28:52;18.60;99.90
29453;DHT22;16424;50.956;5.320;2022-09-13T02:31:26;18.60;99.90
29453;DHT22;16424;50.956;5.320;2022-09-13T02:33:56;18.60;99.90
29453;DHT22;16424;50.956;5.320;2022-09-13T02:36:26;18.60;99.90
29453;DHT22;16424;50.956;5.320;2022-09-13T02:38:59;18.60;99.90
29453;DHT22;16424;50.956;5.320;2022-09-13T02:41:29;18.50;99.90
29453;DHT22;16424;50.956;5.320;2022-09-13T02:44:27;18.40;99.90
29453;DHT22;16424;50.956;5.320;2022-09-13T02:47:08;18.40;99.90
29453;DHT22;16424;50.956;5.320;2022-09-13T02:57:40;18.30;99.90
29453;DHT22;16424;50.956;5.320;2022-09-13T03:00:07;18.30;99.90
29453;DHT22;16424;50.956;5.320;2022-09-13T03:02:33;18.30;99.90
29453;DHT22;16424;50.956;5.320;2022-09-13T03:05:00;18.30;99.90
29453;DHT22;16424;50.956;5.320;2022-09-13T03:07:27;18.30;99.90
29453;DHT22;16424;50.956;5.320;2022-09-13T03:09:56;18.30;99.90
29453;DHT22;16424;50.956;5.320;2022-09-13T03:13:13;18.30;99.90
29453;DHT22;16424;50.956;5.320;2022-09-13T03:15:36;18.20;99.90
29453;DHT22;16424;50.956;5.320;2022-09-13T03:18:07;18.30;99.90
29453;DHT22;16424;50.956;5.320;2022-09-13T03:23:22;18.30;99.90
29453;DHT22;16424;50.956;5.320;2022-09-13T03:31:20;18.40;99.90
29453;DHT22;16424;50.956;5.320;2022-09-13T03:34:29;18.40;99.90
29453;DHT22;16424;50.956;5.320;2022-09-13T03:41:52;18.30;99.90
29453;DHT22;16424;50.956;5.320;2022-09-13T03:44:22;18.30;99.90
29453;DHT22;16424;50.956;5.320;2022-09-13T03:46:54;18.40;99.90
29453;DHT22;16424;50.956;5.320;2022-09-13T03:49:23;18.40;99.90
29453;DHT22;16424;50.956;5.320;2022-09-13T03:51:51;18.50;99.90
29453;DHT22;16424;50.956;5.320;2022-09-13T03:54:24;18.60;99.90
29453;DHT22;16424;50.956;5.320;2022-09-13T03:57:13;18.60;99.90
29453;DHT22;16424;50.956;5.320;2022-09-13T03:59:57;18.70;99.90
29453;DHT22;16424;50.956;5.320;2022-09-13T04:02:24;18.70;99.90
29453;DHT22;16424;50.956;5.320;2022-09-13T04:04:50;18.70;99.90
29453;DHT22;16424;50.956;5.320;2022-09-13T04:07:19;18.70;99.90
29453;DHT22;16424;50.956;5.320;2022-09-13T04:09:45;18.70;99.90
29453;DHT22;16424;50.956;5.320;2022-09-13T04:12:12;18.70;99.90
29453;DHT22;16424;50.956;5.320;2022-09-13T04:14:39;18.70;99.90
29453;DHT22;16424;50.956;5.320;2022-09-13T04:17:05;18.70;99.90
29453;DHT22;16424;50.956;5.320;2022-09-13T04:19:32;18.60;99.90
29453;DHT22;16424;50.956;5.320;2022-09-13T04:21:58;18.60;99.90
29453;DHT22;16424;50.956;5.320;2022-09-13T04:24:25;18.60;99.90
29453;DHT22;16424;50.956;5.320;2022-09-13T04:26:52;18.70;99.90
29453;DHT22;16424;50.956;5.320;2022-09-13T04:29:19;18.70;99.90
29453;DHT22;16424;50.956;5.320;2022-09-13T04:31:46;18.80;99.90
29453;DHT22;16424;50.956;5.320;2022-09-13T04:34:12;18.80;99.90
29453;DHT22;16424;50.956;5.320;2022-09-13T04:36:38;18.80;99.90
29453;DHT22;16424;50.956;5.320;2022-09-13T04:39:04;18.80;99.90
29453;DHT22;16424;50.956;5.320;2022-09-13T04:41:30;18.80;99.90
29453;DHT22;16424;50.956;5.320;2022-09-13T04:43:59;18.70;99.90
29453;DHT22;16424;50.956;5.320;2022-09-13T04:46:25;18.60;99.90
29453;DHT22;16424;50.956;5.320;2022-09-13T04:48:51;18.50;99.90
29453;DHT22;16424;50.956;5.320;2022-09-13T04:51:17;18.40;99.90
29453;DHT22;16424;50.956;5.320;2022-09-13T04:53:53;18.40;99.90
29453;DHT22;16424;50.956;5.320;2022-09-13T04:56:20;18.40;99.90
29453;DHT22;16424;50.956;5.320;2022-09-13T04:58:49;18.30;99.90
29453;DHT22;16424;50.956;5.320;2022-09-13T05:01:15;18.30;99.90
29453;DHT22;16424;50.956;5.320;2022-09-13T05:03:41;18.40;99.90
29453;DHT22;16424;50.956;5.320;2022-09-13T05:06:09;18.40;99.90
29453;DHT22;16424;50.956;5.320;2022-09-13T05:08:36;18.50;99.90
29453;DHT22;16424;50.956;5.320;2022-09-13T05:11:02;18.50;99.90
29453;DHT22;16424;50.956;5.320;2022-09-13T05:13:28;18.40;99.90
29453;DHT22;16424;50.956;5.320;2022-09-13T05:16:03;18.40;99.90
29453;DHT22;16424;50.956;5.320;2022-09-13T05:18:29;18.40;99.90
29453;DHT22;16424;50.956;5.320;2022-09-13T05:20:57;18.30;99.90
29453;DHT22;16424;50.956;5.320;2022-09-13T05:23:23;18.20;99.90
29453;DHT22;16424;50.956;5.320;2022-09-13T05:25:58;18.20;99.90
29453;DHT22;16424;50.956;5.320;2022-09-13T05:28:25;18.20;99.90
29453;DHT22;16424;50.956;5.320;2022-09-13T05:31:00;18.10;99.90
29453;DHT22;16424;50.956;5.320;2022-09-13T05:33:29;18.10;99.90
29453;DHT22;16424;50.956;5.320;2022-09-13T05:35:55;18.10;99.90
29453;DHT22;16424;50.956;5.320;2022-09-13T05:38:21;18.10;99.90
29453;DHT22;16424;50.956;5.320;2022-09-13T05:40:52;18.20;99.90
29453;DHT22;16424;50.956;5.320;2022-09-13T05:43:19;18.20;99.90
29453;DHT22;16424;50.956;5.320;2022-09-13T05:45:45;18.20;99.90
29453;DHT22;16424;50.956;5.320;2022-09-13T05:48:10;18.30;99.90
29453;DHT22;16424;50.956;5.320;2022-09-13T05:50:36;18.20;99.90
29453;DHT22;16424;50.956;5.320;2022-09-13T05:53:03;18.20;99.90
29453;DHT22;16424;50.956;5.320;2022-09-13T05:55:29;18.20;99.90
29453;DHT22;16424;50.956;5.320;2022-09-13T05:57:55;18.20;99.90
29453;DHT22;16424;50.956;5.320;2022-09-13T06:00:21;18.30;99.90
29453;DHT22;16424;50.956;5.320;2022-09-13T06:02:46;18.30;99.90
29453;DHT22;16424;50.956;5.320;2022-09-13T06:05:12;18.30;99.90
29453;DHT22;16424;50.956;5.320;2022-09-13T06:07:39;18.30;99.90
29453;DHT22;16424;50.956;5.320;2022-09-13T06:10:09;18.40;99.90
29453;DHT22;16424;50.956;5.320;2022-09-13T06:12:35;18.50;99.90
29453;DHT22;16424;50.956;5.320;2022-09-13T06:15:01;18.60;99.90
29453;DHT22;16424;50.956;5.320;2022-09-13T06:17:27;18.70;99.90
29453;DHT22;16424;50.956;5.320;2022-09-13T06:19:52;18.80;99.90
29453;DHT22;16424;50.956;5.320;2022-09-13T06:22:18;18.90;99.90
29453;DHT22;16424;50.956;5.320;2022-09-13T06:24:44;19.00;99.90
29453;DHT22;16424;50.956;5.320;2022-09-13T06:27:10;19.00;99.90
29453;DHT22;16424;50.956;5.320;2022-09-13T06:29:36;19.00;99.90
29453;DHT22;16424;50.956;5.320;2022-09-13T06:32:02;19.10;99.90
29453;DHT22;16424;50.956;5.320;2022-09-13T06:34:28;19.10;99.90
29453;DHT22;16424;50.956;5.320;2022-09-13T06:36:54;19.20;99.90
29453;DHT22;16424;50.956;5.320;2022-09-13T06:39:20;19.20;99.90
29453;DHT22;16424;50.956;5.320;2022-09-13T06:41:45;19.40;99.90
29453;DHT22;16424;50.956;5.320;2022-09-13T06:44:11;19.50;99.90
29453;DHT22;16424;50.956;5.320;2022-09-13T06:46:37;19.60;99.90
29453;DHT22;16424;50.956;5.320;2022-09-13T06:49:05;19.70;99.90
29453;DHT22;16424;50.956;5.320;2022-09-13T06:51:32;19.70;99.90
29453;DHT22;16424;50.956;5.320;2022-09-13T06:53:59;19.80;99.90
29453;DHT22;16424;50.956;5.320;2022-09-13T06:56:30;19.80;99.90
29453;DHT22;16424;50.956;5.320;2022-09-13T06:59:01;19.90;99.90
29453;DHT22;16424;50.956;5.320;2022-09-13T07:01:40;20.00;99.90
29453;DHT22;16424;50.956;5.320;2022-09-13T07:04:12;20.10;99.90
29453;DHT22;16424;50.956;5.320;2022-09-13T07:06:44;20.10;99.90
29453;DHT22;16424;50.956;5.320;2022-09-13T07:09:12;20.10;99.90
29453;DHT22;16424;50.956;5.320;2022-09-13T07:11:39;20.10;99.90
29453;DHT22;16424;50.956;5.320;2022-09-13T07:14:06;20.10;99.90
29453;DHT22;16424;50.956;5.320;2022-09-13T07:16:35;20.20;99.90
29453;DHT22;16424;50.956;5.320;2022-09-13T07:19:04;20.30;99.90
29453;DHT22;16424;50.956;5.320;2022-09-13T07:21:31;20.50;99.90
29453;DHT22;16424;50.956;5.320;2022-09-13T07:23:57;20.60;99.90
29453;DHT22;16424;50.956;5.320;2022-09-13T07:26:24;20.80;99.90
29453;DHT22;16424;50.956;5.320;2022-09-13T07:28:53;20.90;99.90
29453;DHT22;16424;50.956;5.320;2022-09-13T07:31:24;21.10;99.90
29453;DHT22;16424;50.956;5.320;2022-09-13T07:33:57;21.20;99.90
29453;DHT22;16424;50.956;5.320;2022-09-13T07:36:24;21.50;99.90
29453;DHT22;16424;50.956;5.320;2022-09-13T07:38:50;21.70;99.90
29453;DHT22;16424;50.956;5.320;2022-09-13T07:41:18;22.10;99.90
29453;DHT22;16424;50.956;5.320;2022-09-13T07:43:44;22.30;99.90
29453;DHT22;16424;50.956;5.320;2022-09-13T07:46:12;22.50;99.90
29453;DHT22;16424;50.956;5.320;2022-09-13T07:48:40;22.90;99.90
29453;DHT22;16424;50.956;5.320;2022-09-13T07:51:14;23.30;99.90
29453;DHT22;16424;50.956;5.320;2022-09-13T07:53:42;23.60;99.90
29453;DHT22;16424;50.956;5.320;2022-09-13T07:56:10;23.90;99.90
29453;DHT22;16424;50.956;5.320;2022-09-13T07:58:37;24.40;99.90
29453;DHT22;16424;50.956;5.320;2022-09-13T08:01:10;24.70;99.90
29453;DHT22;16424;50.956;5.320;2022-09-13T08:03:37;25.00;99.90
29453;DHT22;16424;50.956;5.320;2022-09-13T08:06:03;25.00;99.90
29453;DHT22;16424;50.956;5.320;2022-09-13T08:08:30;25.00;99.90
29453;DHT22;16424;50.956;5.320;2022-09-13T08:10:57;25.10;99.90
29453;DHT22;16424;50.956;5.320;2022-09-13T08:13:22;25.40;99.90
29453;DHT22;16424;50.956;5.320;2022-09-13T08:15:48;25.60;99.90
29453;DHT22;16424;50.956;5.320;2022-09-13T08:18:15;26.00;99.90
29453;DHT22;16424;50.956;5.320;2022-09-13T08:20:41;26.50;99.90
29453;DHT22;16424;50.956;5.320;2022-09-13T08:23:08;27.10;99.90
29453;DHT22;16424;50.956;5.320;2022-09-13T08:25:35;27.50;99.90
29453;DHT22;16424;50.956;5.320;2022-09-13T08:28:04;27.80;99.90
29453;DHT22;16424;50.956;5.320;2022-09-13T08:30:30;28.50;99.90
29453;DHT22;16424;50.956;5.320;2022-09-13T08:33:00;29.00;99.90
29453;DHT22;16424;50.956;5.320;2022-09-13T08:35:27;29.40;99.90
29453;DHT22;16424;50.956;5.320;2022-09-13T08:37:53;30.00;99.90
29453;DHT22;16424;50.956;5.320;2022-09-13T08:40:20;30.50;99.90
29453;DHT22;16424;50.956;5.320;2022-09-13T08:43:05;31.00;99.90
29453;DHT22;16424;50.956;5.320;2022-09-13T08:45:34;31.60;99.90
29453;DHT22;16424;50.956;5.320;2022-09-13T08:48:08;31.70;99.70
29453;DHT22;16424;50.956;5.320;2022-09-13T08:50:37;31.40;99.90
29453;DHT22;16424;50.956;5.320;2022-09-13T08:58:24;30.80;99.90
29453;DHT22;16424;50.956;5.320;2022-09-13T09:01:02;31.00;99.80
29453;DHT22;16424;50.956;5.320;2022-09-13T09:03:48;31.10;99.90
29453;DHT22;16424;50.956;5.320;2022-09-13T09:06:17;31.50;99.20
29453;DHT22;16424;50.956;5.320;2022-09-13T09:08:51;31.60;98.50
29453;DHT22;16424;50.956;5.320;2022-09-13T09:11:40;31.30;98.30
29453;DHT22;16424;50.956;5.320;2022-09-13T09:17:01;31.10;98.50
29453;DHT22;16424;50.956;5.320;2022-09-13T09:19:35;31.10;97.90
29453;DHT22;16424;50.956;5.320;2022-09-13T09:22:04;30.90;97.70
29453;DHT22;16424;50.956;5.320;2022-09-13T09:24:34;30.40;99.00
29453;DHT22;16424;50.956;5.320;2022-09-13T09:27:04;30.60;99.80
29453;DHT22;16424;50.956;5.320;2022-09-13T09:29:36;30.50;98.60
29453;DHT22;16424;50.956;5.320;2022-09-13T09:40:48;29.30;99.60
29453;DHT22;16424;50.956;5.320;2022-09-13T09:43:18;28.40;99.90
29453;DHT22;16424;50.956;5.320;2022-09-13T09:45:45;28.40;99.90
29453;DHT22;16424;50.956;5.320;2022-09-13T09:48:17;28.40;99.90
29453;DHT22;16424;50.956;5.320;2022-09-13T09:50:52;27.90;99.90
29453;DHT22;16424;50.956;5.320;2022-09-13T09:53:33;27.70;99.90
29453;DHT22;16424;50.956;5.320;2022-09-13T09:58:47;27.60;99.90
29453;DHT22;16424;50.956;5.320;2022-09-13T10:03:50;27.60;99.90
29453;DHT22;16424;50.956;5.320;2022-09-13T10:06:21;27.80;99.90
29453;DHT22;16424;50.956;5.320;2022-09-13T10:08:58;28.20;99.90
29453;DHT22;16424;50.956;5.320;2022-09-13T10:11:47;28.40;99.90
29453;DHT22;16424;50.956;5.320;2022-09-13T10:14:48;28.40;99.90
29453;DHT22;16424;50.956;5.320;2022-09-13T10:17:26;28.60;99.90
29453;DHT22;16424;50.956;5.320;2022-09-13T10:22:23;28.20;99.90
29453;DHT22;16424;50.956;5.320;2022-09-13T10:24:49;28.30;99.90
29453;DHT22;16424;50.956;5.320;2022-09-13T10:27:37;28.20;99.90
29453;DHT22;16424;50.956;5.320;2022-09-13T10:30:04;28.20;99.90
29453;DHT22;16424;50.956;5.320;2022-09-13T10:32:32;28.00;99.90
29453;DHT22;16424;50.956;5.320;2022-09-13T10:35:07;27.90;99.90
29453;DHT22;16424;50.956;5.320;2022-09-13T10:37:42;27.70;99.90
29453;DHT22;16424;50.956;5.320;2022-09-13T10:40:28;27.20;99.90
29453;DHT22;16424;50.956;5.320;2022-09-13T10:42:59;27.40;99.90
29453;DHT22;16424;50.956;5.320;2022-09-13T10:45:28;27.40;99.90
29453;DHT22;16424;50.956;5.320;2022-09-13T10:48:04;27.60;99.90
29453;DHT22;16424;50.956;5.320;2022-09-13T10:50:33;27.90;99.90
29453;DHT22;16424;50.956;5.320;2022-09-13T10:53:01;28.00;99.90
29453;DHT22;16424;50.956;5.320;2022-09-13T10:55:33;28.30;99.90
29453;DHT22;16424;50.956;5.320;2022-09-13T11:20:38;27.70;99.90
29453;DHT22;16424;50.956;5.320;2022-09-13T11:34:22;27.20;99.90
29453;DHT22;16424;50.956;5.320;2022-09-13T11:48:00;27.20;99.90
29453;DHT22;16424;50.956;5.320;2022-09-13T11:53:23;27.10;99.90
29453;DHT22;16424;50.956;5.320;2022-09-13T11:56:05;27.20;99.90
29453;DHT22;16424;50.956;5.320;2022-09-13T11:58:38;27.20;99.90
29453;DHT22;16424;50.956;5.320;2022-09-13T12:01:10;27.40;99.90
29453;DHT22;16424;50.956;5.320;2022-09-13T12:04:03;27.50;99.90
29453;DHT22;16424;50.956;5.320;2022-09-13T12:06:41;27.70;99.90
29453;DHT22;16424;50.956;5.320;2022-09-13T12:09:18;28.10;99.90
29453;DHT22;16424;50.956;5.320;2022-09-13T12:11:53;27.90;99.90
29453;DHT22;16424;50.956;5.320;2022-09-13T12:14:25;28.00;99.90
29453;DHT22;16424;50.956;5.320;2022-09-13T12:16:57;28.10;99.90
29453;DHT22;16424;50.956;5.320;2022-09-13T12:21:57;28.10;99.90
29453;DHT22;16424;50.956;5.320;2022-09-13T12:27:05;28.20;99.90
29453;DHT22;16424;50.956;5.320;2022-09-13T12:29:49;28.00;99.90
29453;DHT22;16424;50.956;5.320;2022-09-13T12:32:18;28.00;99.90
29453;DHT22;16424;50.956;5.320;2022-09-13T12:35:07;27.90;99.90
29453;DHT22;16424;50.956;5.320;2022-09-13T13:02:01;28.00;99.90
29453;DHT22;16424;50.956;5.320;2022-09-13T13:04:31;28.10;99.90
29453;DHT22;16424;50.956;5.320;2022-09-13T13:07:18;28.30;99.90
29453;DHT22;16424;50.956;5.320;2022-09-13T13:09:47;28.50;99.90
29453;DHT22;16424;50.956;5.320;2022-09-13T13:12:30;28.60;99.90
29453;DHT22;16424;50.956;5.320;2022-09-13T13:15:00;28.60;99.90
29453;DHT22;16424;50.956;5.320;2022-09-13T13:20:44;28.50;99.90
29453;DHT22;16424;50.956;5.320;2022-09-13T13:26:10;28.30;99.90
29453;DHT22;16424;50.956;5.320;2022-09-13T13:39:32;28.90;99.90
29453;DHT22;16424;50.956;5.320;2022-09-13T13:42:23;29.10;99.90
29453;DHT22;16424;50.956;5.320;2022-09-13T13:50:16;29.20;99.90
29453;DHT22;16424;50.956;5.320;2022-09-13T13:52:55;29.20;99.90
29453;DHT22;16424;50.956;5.320;2022-09-13T13:55:43;29.10;99.90
29453;DHT22;16424;50.956;5.320;2022-09-13T14:00:49;28.90;99.90
29453;DHT22;16424;50.956;5.320;2022-09-13T14:04:31;28.80;99.90
29453;DHT22;16424;50.956;5.320;2022-09-13T14:06:46;28.60;99.90
29453;DHT22;16424;50.956;5.320;2022-09-13T14:09:27;28.50;99.90
29453;DHT22;16424;50.956;5.320;2022-09-13T14:20:07;28.30;99.90
29453;DHT22;16424;50.956;5.320;2022-09-13T14:22:34;28.20;99.90
29453;DHT22;16424;50.956;5.320;2022-09-13T14:27:40;27.90;99.90
29453;DHT22;16424;50.956;5.320;2022-09-13T14:30:31;27.80;99.90
29453;DHT22;16424;50.956;5.320;2022-09-13T14:32:58;27.80;99.90
29453;DHT22;16424;50.956;5.320;2022-09-13T14:35:38;27.70;99.90
29453;DHT22;16424;50.956;5.320;2022-09-13T14:38:21;27.50;99.90
29453;DHT22;16424;50.956;5.320;2022-09-13T14:40:53;27.50;99.90
29453;DHT22;16424;50.956;5.320;2022-09-13T14:43:23;27.40;99.90
29453;DHT22;16424;50.956;5.320;2022-09-13T14:48:41;27.30;99.90
29453;DHT22;16424;50.956;5.320;2022-09-13T14:51:26;27.00;99.90
29453;DHT22;16424;50.956;5.320;2022-09-13T14:53:56;26.90;99.90
29453;DHT22;16424;50.956;5.320;2022-09-13T14:58:58;26.80;99.90
29453;DHT22;16424;50.956;5.320;2022-09-13T15:01:30;26.80;99.90
29453;DHT22;16424;50.956;5.320;2022-09-13T15:03:58;26.70;99.90
29453;DHT22;16424;50.956;5.320;2022-09-13T15:06:32;26.60;99.90
29453;DHT22;16424;50.956;5.320;2022-09-13T15:14:28;26.40;99.90
29453;DHT22;16424;50.956;5.320;2022-09-13T15:17:06;26.30;99.90
29453;DHT22;16424;50.956;5.320;2022-09-13T15:19:46;26.20;99.90
29453;DHT22;16424;50.956;5.320;2022-09-13T15:22:23;26.10;99.90
29453;DHT22;16424;50.956;5.320;2022-09-13T15:24:55;25.80;99.90
29453;DHT22;16424;50.956;5.320;2022-09-13T15:27:32;25.50;99.90
29453;DHT22;16424;50.956;5.320;2022-09-13T15:30:17;25.20;99.90
29453;DHT22;16424;50.956;5.320;2022-09-13T15:32:43;25.30;99.90
29453;DHT22;16424;50.956;5.320;2022-09-13T15:35:23;25.40;99.90
29453;DHT22;16424;50.956;5.320;2022-09-13T15:37:59;25.40;99.90
29453;DHT22;16424;50.956;5.320;2022-09-13T15:40:28;25.50;99.90
29453;DHT22;16424;50.956;5.320;2022-09-13T15:42:54;25.50;99.90
29453;DHT22;16424;50.956;5.320;2022-09-13T15:45:21;25.40;99.90
29453;DHT22;16424;50.956;5.320;2022-09-13T15:47:48;25.30;99.90
29453;DHT22;16424;50.956;5.320;2022-09-13T15:50:19;25.20;99.90
29453;DHT22;16424;50.956;5.320;2022-09-13T15:52:45;25.10;99.90
29453;DHT22;16424;50.956;5.320;2022-09-13T15:55:11;25.00;99.90
29453;DHT22;16424;50.956;5.320;2022-09-13T15:57:36;24.80;99.90
29453;DHT22;16424;50.956;5.320;2022-09-13T16:00:03;24.80;99.90
29453;DHT22;16424;50.956;5.320;2022-09-13T16:02:31;24.80;99.90
29453;DHT22;16424;50.956;5.320;2022-09-13T16:04:57;24.70;99.90
29453;DHT22;16424;50.956;5.320;2022-09-13T16:07:24;24.70;99.90
29453;DHT22;16424;50.956;5.320;2022-09-13T16:09:51;24.70;99.90
29453;DHT22;16424;50.956;5.320;2022-09-13T16:12:17;24.70;99.90
29453;DHT22;16424;50.956;5.320;2022-09-13T16:14:46;24.70;99.90
29453;DHT22;16424;50.956;5.320;2022-09-13T16:17:19;24.70;99.90
29453;DHT22;16424;50.956;5.320;2022-09-13T16:19:45;24.80;99.90
29453;DHT22;16424;50.956;5.320;2022-09-13T16:22:10;24.70;99.90
29453;DHT22;16424;50.956;5.320;2022-09-13T16:24:36;24.60;99.90
29453;DHT22;16424;50.956;5.320;2022-09-13T16:27:02;24.60;99.90
29453;DHT22;16424;50.956;5.320;2022-09-13T16:29:28;24.40;99.90
29453;DHT22;16424;50.956;5.320;2022-09-13T16:31:54;24.40;99.90
29453;DHT22;16424;50.956;5.320;2022-09-13T16:34:22;24.40;99.90
29453;DHT22;16424;50.956;5.320;2022-09-13T16:36:47;24.30;99.90
29453;DHT22;16424;50.956;5.320;2022-09-13T16:39:13;24.20;99.90
29453;DHT22;16424;50.956;5.320;2022-09-13T16:41:39;24.00;99.90
29453;DHT22;16424;50.956;5.320;2022-09-13T16:44:05;23.80;99.90
29453;DHT22;16424;50.956;5.320;2022-09-13T16:46:31;23.70;99.90
29453;DHT22;16424;50.956;5.320;2022-09-13T16:48:57;24.00;99.90
29453;DHT22;16424;50.956;5.320;2022-09-13T16:51:24;24.00;99.90
29453;DHT22;16424;50.956;5.320;2022-09-13T16:53:51;24.00;99.90
29453;DHT22;16424;50.956;5.320;2022-09-13T16:56:19;24.00;99.90
29453;DHT22;16424;50.956;5.320;2022-09-13T16:58:46;23.70;99.90
29453;DHT22;16424;50.956;5.320;2022-09-13T17:01:14;23.70;99.90
29453;DHT22;16424;50.956;5.320;2022-09-13T17:03:40;23.70;99.90
29453;DHT22;16424;50.956;5.320;2022-09-13T17:06:09;23.70;99.90
29453;DHT22;16424;50.956;5.320;2022-09-13T17:08:37;23.70;99.90
29453;DHT22;16424;50.956;5.320;2022-09-13T17:11:08;23.70;99.90
29453;DHT22;16424;50.956;5.320;2022-09-13T17:13:35;23.70;99.90
29453;DHT22;16424;50.956;5.320;2022-09-13T17:16:01;23.40;99.90
29453;DHT22;16424;50.956;5.320;2022-09-13T17:18:27;23.40;99.90
29453;DHT22;16424;50.956;5.320;2022-09-13T17:20:53;23.30;99.90
29453;DHT22;16424;50.956;5.320;2022-09-13T17:23:18;23.30;99.90
29453;DHT22;16424;50.956;5.320;2022-09-13T17:25:48;23.10;99.90
29453;DHT22;16424;50.956;5.320;2022-09-13T17:28:15;23.00;99.90
29453;DHT22;16424;50.956;5.320;2022-09-13T17:30:41;22.90;99.90
29453;DHT22;16424;50.956;5.320;2022-09-13T17:33:08;22.60;99.90
29453;DHT22;16424;50.956;5.320;2022-09-13T17:35:34;22.50;99.90
29453;DHT22;16424;50.956;5.320;2022-09-13T17:38:01;22.50;99.90
29453;DHT22;16424;50.956;5.320;2022-09-13T17:40:28;22.40;99.90
29453;DHT22;16424;50.956;5.320;2022-09-13T17:42:53;22.40;99.90
29453;DHT22;16424;50.956;5.320;2022-09-13T17:45:20;22.20;99.90
29453;DHT22;16424;50.956;5.320;2022-09-13T17:47:46;22.30;99.90
29453;DHT22;16424;50.956;5.320;2022-09-13T17:50:12;22.30;99.90
29453;DHT22;16424;50.956;5.320;2022-09-13T17:52:38;22.30;99.90
29453;DHT22;16424;50.956;5.320;2022-09-13T17:55:05;22.30;99.90
29453;DHT22;16424;50.956;5.320;2022-09-13T17:57:31;22.30;99.90
29453;DHT22;16424;50.956;5.320;2022-09-13T17:59:57;22.20;99.90
29453;DHT22;16424;50.956;5.320;2022-09-13T18:02:22;22.20;99.90
29453;DHT22;16424;50.956;5.320;2022-09-13T18:04:49;22.20;99.90
29453;DHT22;16424;50.956;5.320;2022-09-13T18:07:16;22.10;99.90
29453;DHT22;16424;50.956;5.320;2022-09-13T18:09:42;22.10;99.90
29453;DHT22;16424;50.956;5.320;2022-09-13T18:12:09;22.00;99.90
29453;DHT22;16424;50.956;5.320;2022-09-13T18:14:34;21.90;99.90
29453;DHT22;16424;50.956;5.320;2022-09-13T18:17:00;21.90;99.90
29453;DHT22;16424;50.956;5.320;2022-09-13T18:19:26;21.80;99.90
29453;DHT22;16424;50.956;5.320;2022-09-13T18:21:52;21.70;99.90
29453;DHT22;16424;50.956;5.320;2022-09-13T18:24:18;21.70;99.90
29453;DHT22;16424;50.956;5.320;2022-09-13T18:26:44;21.70;99.90
29453;DHT22;16424;50.956;5.320;2022-09-13T18:29:12;21.70;99.90
29453;DHT22;16424;50.956;5.320;2022-09-13T18:31:39;21.70;99.90
29453;DHT22;16424;50.956;5.320;2022-09-13T18:34:14;21.80;99.90
29453;DHT22;16424;50.956;5.320;2022-09-13T18:36:40;21.80;99.90
29453;DHT22;16424;50.956;5.320;2022-09-13T18:39:07;21.70;99.90
29453;DHT22;16424;50.956;5.320;2022-09-13T18:41:38;21.60;99.90
29453;DHT22;16424;50.956;5.320;2022-09-13T18:44:08;21.60;99.90
29453;DHT22;16424;50.956;5.320;2022-09-13T18:46:35;21.50;99.90
29453;DHT22;16424;50.956;5.320;2022-09-13T18:49:02;21.50;99.90
29453;DHT22;16424;50.956;5.320;2022-09-13T18:51:30;21.40;99.90
29453;DHT22;16424;50.956;5.320;2022-09-13T18:53:57;21.40;99.90
29453;DHT22;16424;50.956;5.320;2022-09-13T18:56:24;21.30;99.90
29453;DHT22;16424;50.956;5.320;2022-09-13T18:58:51;21.30;99.90
29453;DHT22;16424;50.956;5.320;2022-09-13T19:01:24;21.30;99.90
29453;DHT22;16424;50.956;5.320;2022-09-13T19:04:02;21.30;99.90
29453;DHT22;16424;50.956;5.320;2022-09-13T19:06:29;21.20;99.90
29453;DHT22;16424;50.956;5.320;2022-09-13T19:08:56;21.20;99.90
29453;DHT22;16424;50.956;5.320;2022-09-13T19:11:24;21.10;99.90
29453;DHT22;16424;50.956;5.320;2022-09-13T19:13:50;21.10;99.90
29453;DHT22;16424;50.956;5.320;2022-09-13T19:16:18;21.20;99.90